sensor_id;sensor_type;location;lat;lon;timestamp;P1;durP1;ratioP1;P2;durP2;ratioP2
7969;SDS011;4030;52.362;9.206;2022-07-29T00:02:25;2.88;;;1.20;;
7969;SDS011;4030;52.362;9.206;2022-07-29T00:04:51;2.05;;;1.10;;
7969;SDS011;4030;52.362;9.206;2022-07-29T00:07:17;3.15;;;1.00;;
7969;SDS011;4030;52.362;9.206;2022-07-29T00:09:42;2.55;;;1.33;;
7969;SDS011;4030;52.362;9.206;2022-07-29T00:12:08;1.60;;;1.00;;
7969;SDS011;4030;52.362;9.206;2022-07-29T00:14:34;2.63;;;1.10;;
7969;SDS011;4030;52.362;9.206;2022-07-29T00:17:00;1.83;;;1.05;;
7969;SDS011;4030;52.362;9.206;2022-07-29T00:19:25;1.40;;;0.90;;
7969;SDS011;4030;52.362;9.206;2022-07-29T00:21:51;2.08;;;1.05;;
7969;SDS011;4030;52.362;9.206;2022-07-29T00:24:16;3.08;;;0.90;;
7969;SDS011;4030;52.362;9.206;2022-07-29T00:26:42;1.80;;;1.00;;
7969;SDS011;4030;52.362;9.206;2022-07-29T00:29:08;2.72;;;1.08;;
7969;SDS011;4030;52.362;9.206;2022-07-29T00:31:34;2.58;;;1.10;;
7969;SDS011;4030;52.362;9.206;2022-07-29T00:33:59;2.63;;;0.98;;
7969;SDS011;4030;52.362;9.206;2022-07-29T00:36:25;1.67;;;1.00;;
7969;SDS011;4030;52.362;9.206;2022-07-29T00:38:51;1.45;;;0.80;;
7969;SDS011;4030;52.362;9.206;2022-07-29T00:41:17;1.52;;;0.85;;
7969;SDS011;4030;52.362;9.206;2022-07-29T00:43:43;2.22;;;0.90;;
7969;SDS011;4030;52.362;9.206;2022-07-29T00:46:10;1.90;;;1.10;;
7969;SDS011;4030;52.362;9.206;2022-07-29T00:48:36;3.17;;;0.93;;
7969;SDS011;4030;52.362;9.206;2022-07-29T00:51:03;1.35;;;1.02;;
7969;SDS011;4030;52.362;9.206;2022-07-29T00:53:30;2.42;;;0.90;;
7969;SDS011;4030;52.362;9.206;2022-07-29T00:55:57;3.63;;;1.10;;
7969;SDS011;4030;52.362;9.206;2022-07-29T00:58:23;3.25;;;0.90;;
7969;SDS011;4030;52.362;9.206;2022-07-29T01:00:51;2.33;;;1.00;;
7969;SDS011;4030;52.362;9.206;2022-07-29T01:03:17;1.55;;;0.93;;
7969;SDS011;4030;52.362;9.206;2022-07-29T01:05:43;1.52;;;0.90;;
7969;SDS011;4030;52.362;9.206;2022-07-29T01:08:10;1.90;;;0.90;;
7969;SDS011;4030;52.362;9.206;2022-07-29T01:10:37;2.22;;;0.98;;
7969;SDS011;4030;52.362;9.206;2022-07-29T01:13:04;2.17;;;1.08;;
7969;SDS011;4030;52.362;9.206;2022-07-29T01:15:30;1.13;;;0.90;;
7969;SDS011;4030;52.362;9.206;2022-07-29T01:20:49;3.03;;;0.90;;
7969;SDS011;4030;52.362;9.206;2022-07-29T01:29:12;2.25;;;0.93;;
7969;SDS011;4030;52.362;9.206;2022-07-29T01:40:02;2.58;;;1.10;;
7969;SDS011;4030;52.362;9.206;2022-07-29T01:42:36;1.77;;;0.82;;
7969;SDS011;4030;52.362;9.206;2022-07-29T01:47:37;2.25;;;0.80;;
7969;SDS011;4030;52.362;9.206;2022-07-29T01:50:07;1.38;;;0.80;;
7969;SDS011;4030;52.362;9.206;2022-07-29T01:52:43;2.50;;;1.20;;
7969;SDS011;4030;52.362;9.206;2022-07-29T01:55:34;1.80;;;0.90;;
7969;SDS011;4030;52.362;9.206;2022-07-29T01:58:03;1.25;;;0.90;;
7969;SDS011;4030;52.362;9.206;2022-07-29T02:00:30;1.75;;;0.93;;
7969;SDS011;4030;52.362;9.206;2022-07-29T02:02:57;1.23;;;0.90;;
7969;SDS011;4030;52.362;9.206;2022-07-29T02:05:25;2.45;;;0.80;;
7969;SDS011;4030;52.362;9.206;2022-07-29T02:07:53;1.80;;;0.80;;
7969;SDS011;4030;52.362;9.206;2022-07-29T02:10:23;2.17;;;1.00;;
7969;SDS011;4030;52.362;9.206;2022-07-29T02:12:52;1.95;;;0.93;;
7969;SDS011;4030;52.362;9.206;2022-07-29T02:15:20;1.48;;;1.00;;
7969;SDS011;4030;52.362;9.206;2022-07-29T02:17:52;2.00;;;0.90;;
7969;SDS011;4030;52.362;9.206;2022-07-29T02:20:22;2.10;;;0.82;;
7969;SDS011;4030;52.362;9.206;2022-07-29T02:22:50;1.42;;;1.00;;
7969;SDS011;4030;52.362;9.206;2022-07-29T02:25:17;1.83;;;0.90;;
7969;SDS011;4030;52.362;9.206;2022-07-29T02:27:43;2.05;;;0.90;;
7969;SDS011;4030;52.362;9.206;2022-07-29T02:30:10;1.45;;;0.85;;
7969;SDS011;4030;52.362;9.206;2022-07-29T02:32:37;1.73;;;0.80;;
7969;SDS011;4030;52.362;9.206;2022-07-29T02:35:06;1.20;;;0.80;;
7969;SDS011;4030;52.362;9.206;2022-07-29T02:37:34;1.58;;;0.90;;
7969;SDS011;4030;52.362;9.206;2022-07-29T02:40:02;1.77;;;1.00;;
7969;SDS011;4030;52.362;9.206;2022-07-29T02:42:29;2.13;;;1.08;;
7969;SDS011;4030;52.362;9.206;2022-07-29T02:44:55;0.95;;;0.80;;
7969;SDS011;4030;52.362;9.206;2022-07-29T02:47:27;3.10;;;1.10;;
7969;SDS011;4030;52.362;9.206;2022-07-29T02:50:00;1.30;;;0.85;;
7969;SDS011;4030;52.362;9.206;2022-07-29T02:52:54;3.30;;;0.90;;
7969;SDS011;4030;52.362;9.206;2022-07-29T02:55:33;1.00;;;0.80;;
7969;SDS011;4030;52.362;9.206;2022-07-29T02:58:00;1.67;;;1.02;;
7969;SDS011;4030;52.362;9.206;2022-07-29T03:00:29;1.27;;;0.82;;
7969;SDS011;4030;52.362;9.206;2022-07-29T03:02:59;1.70;;;0.80;;
7969;SDS011;4030;52.362;9.206;2022-07-29T03:05:28;1.60;;;0.90;;
7969;SDS011;4030;52.362;9.206;2022-07-29T03:07:57;2.60;;;0.90;;
7969;SDS011;4030;52.362;9.206;2022-07-29T03:10:25;2.25;;;1.10;;
7969;SDS011;4030;52.362;9.206;2022-07-29T03:12:52;1.75;;;0.88;;
7969;SDS011;4030;52.362;9.206;2022-07-29T03:15:19;1.50;;;1.00;;
7969;SDS011;4030;52.362;9.206;2022-07-29T03:17:45;1.92;;;0.98;;
7969;SDS011;4030;52.362;9.206;2022-07-29T03:20:11;1.58;;;0.88;;
7969;SDS011;4030;52.362;9.206;2022-07-29T03:22:39;1.38;;;0.90;;
7969;SDS011;4030;52.362;9.206;2022-07-29T03:25:11;1.23;;;0.95;;
7969;SDS011;4030;52.362;9.206;2022-07-29T03:27:38;1.67;;;0.98;;
7969;SDS011;4030;52.362;9.206;2022-07-29T03:30:04;1.17;;;0.80;;
7969;SDS011;4030;52.362;9.206;2022-07-29T03:32:31;1.55;;;1.00;;
7969;SDS011;4030;52.362;9.206;2022-07-29T03:34:56;1.73;;;0.90;;
7969;SDS011;4030;52.362;9.206;2022-07-29T03:37:22;1.25;;;0.95;;
7969;SDS011;4030;52.362;9.206;2022-07-29T03:39:48;1.20;;;0.82;;
7969;SDS011;4030;52.362;9.206;2022-07-29T03:42:16;1.45;;;0.90;;
7969;SDS011;4030;52.362;9.206;2022-07-29T03:44:45;1.40;;;1.00;;
7969;SDS011;4030;52.362;9.206;2022-07-29T03:47:13;2.30;;;0.80;;
7969;SDS011;4030;52.362;9.206;2022-07-29T03:49:42;1.45;;;0.90;;
7969;SDS011;4030;52.362;9.206;2022-07-29T03:52:09;1.40;;;0.90;;
7969;SDS011;4030;52.362;9.206;2022-07-29T03:54:35;2.20;;;0.98;;
7969;SDS011;4030;52.362;9.206;2022-07-29T03:57:01;3.85;;;1.05;;
7969;SDS011;4030;52.362;9.206;2022-07-29T03:59:28;1.50;;;1.02;;
7969;SDS011;4030;52.362;9.206;2022-07-29T04:01:56;1.60;;;0.90;;
7969;SDS011;4030;52.362;9.206;2022-07-29T04:04:22;2.35;;;0.95;;
7969;SDS011;4030;52.362;9.206;2022-07-29T04:06:48;2.30;;;0.85;;
7969;SDS011;4030;52.362;9.206;2022-07-29T04:09:14;2.28;;;1.00;;
7969;SDS011;4030;52.362;9.206;2022-07-29T04:11:40;2.90;;;0.98;;
7969;SDS011;4030;52.362;9.206;2022-07-29T04:14:07;1.55;;;1.00;;
7969;SDS011;4030;52.362;9.206;2022-07-29T04:16:33;1.35;;;0.80;;
7969;SDS011;4030;52.362;9.206;2022-07-29T04:18:59;2.67;;;1.02;;
7969;SDS011;4030;52.362;9.206;2022-07-29T04:21:25;1.83;;;0.85;;
7969;SDS011;4030;52.362;9.206;2022-07-29T04:23:50;1.25;;;0.80;;
7969;SDS011;4030;52.362;9.206;2022-07-29T04:26:17;1.95;;;0.80;;
7969;SDS011;4030;52.362;9.206;2022-07-29T04:28:43;1.40;;;0.80;;
7969;SDS011;4030;52.362;9.206;2022-07-29T04:31:09;1.88;;;0.98;;
7969;SDS011;4030;52.362;9.206;2022-07-29T04:33:35;2.28;;;0.90;;
7969;SDS011;4030;52.362;9.206;2022-07-29T04:36:01;1.35;;;0.80;;
7969;SDS011;4030;52.362;9.206;2022-07-29T04:38:27;1.80;;;0.80;;
7969;SDS011;4030;52.362;9.206;2022-07-29T04:40:53;1.20;;;0.88;;
7969;SDS011;4030;52.362;9.206;2022-07-29T04:43:19;1.98;;;0.93;;
7969;SDS011;4030;52.362;9.206;2022-07-29T04:45:45;1.63;;;0.93;;
7969;SDS011;4030;52.362;9.206;2022-07-29T04:48:11;1.95;;;0.98;;
7969;SDS011;4030;52.362;9.206;2022-07-29T04:50:39;1.30;;;0.90;;
7969;SDS011;4030;52.362;9.206;2022-07-29T04:53:06;1.20;;;0.88;;
7969;SDS011;4030;52.362;9.206;2022-07-29T04:55:32;2.03;;;0.90;;
7969;SDS011;4030;52.362;9.206;2022-07-29T04:57:58;1.50;;;0.90;;
7969;SDS011;4030;52.362;9.206;2022-07-29T05:00:24;1.58;;;1.10;;
7969;SDS011;4030;52.362;9.206;2022-07-29T05:02:50;1.58;;;0.98;;
7969;SDS011;4030;52.362;9.206;2022-07-29T05:05:16;2.00;;;1.20;;
7969;SDS011;4030;52.362;9.206;2022-07-29T05:07:41;1.77;;;0.90;;
7969;SDS011;4030;52.362;9.206;2022-07-29T05:10:07;1.33;;;0.80;;
7969;SDS011;4030;52.362;9.206;2022-07-29T05:12:33;1.15;;;0.88;;
7969;SDS011;4030;52.362;9.206;2022-07-29T05:14:59;1.80;;;1.00;;
7969;SDS011;4030;52.362;9.206;2022-07-29T05:17:25;2.75;;;1.00;;
7969;SDS011;4030;52.362;9.206;2022-07-29T05:19:50;0.93;;;0.73;;
7969;SDS011;4030;52.362;9.206;2022-07-29T05:22:17;2.20;;;0.95;;
7969;SDS011;4030;52.362;9.206;2022-07-29T05:24:44;1.58;;;1.10;;
7969;SDS011;4030;52.362;9.206;2022-07-29T05:27:09;1.70;;;1.00;;
7969;SDS011;4030;52.362;9.206;2022-07-29T05:29:35;1.50;;;0.90;;
7969;SDS011;4030;52.362;9.206;2022-07-29T05:32:01;1.75;;;0.90;;
7969;SDS011;4030;52.362;9.206;2022-07-29T05:34:27;1.20;;;0.90;;
7969;SDS011;4030;52.362;9.206;2022-07-29T05:36:53;1.67;;;0.93;;
7969;SDS011;4030;52.362;9.206;2022-07-29T05:39:19;3.00;;;1.10;;
7969;SDS011;4030;52.362;9.206;2022-07-29T05:41:45;2.30;;;0.85;;
7969;SDS011;4030;52.362;9.206;2022-07-29T05:44:11;2.05;;;1.10;;
7969;SDS011;4030;52.362;9.206;2022-07-29T05:46:38;1.92;;;0.90;;
7969;SDS011;4030;52.362;9.206;2022-07-29T05:49:04;1.65;;;1.00;;
7969;SDS011;4030;52.362;9.206;2022-07-29T05:51:31;1.58;;;0.85;;
7969;SDS011;4030;52.362;9.206;2022-07-29T05:53:57;1.50;;;1.10;;
7969;SDS011;4030;52.362;9.206;2022-07-29T05:56:23;2.40;;;0.90;;
7969;SDS011;4030;52.362;9.206;2022-07-29T05:58:49;2.38;;;0.88;;
7969;SDS011;4030;52.362;9.206;2022-07-29T06:01:14;1.98;;;1.10;;
7969;SDS011;4030;52.362;9.206;2022-07-29T06:03:40;2.38;;;1.15;;
7969;SDS011;4030;52.362;9.206;2022-07-29T06:06:06;1.83;;;0.90;;
7969;SDS011;4030;52.362;9.206;2022-07-29T06:08:32;1.73;;;1.10;;
7969;SDS011;4030;52.362;9.206;2022-07-29T06:10:59;2.40;;;1.00;;
7969;SDS011;4030;52.362;9.206;2022-07-29T06:13:25;1.42;;;0.90;;
7969;SDS011;4030;52.362;9.206;2022-07-29T06:15:51;3.55;;;1.02;;
7969;SDS011;4030;52.362;9.206;2022-07-29T06:18:16;1.60;;;1.05;;
7969;SDS011;4030;52.362;9.206;2022-07-29T06:20:42;3.53;;;1.00;;
7969;SDS011;4030;52.362;9.206;2022-07-29T06:23:08;2.13;;;1.00;;
7969;SDS011;4030;52.362;9.206;2022-07-29T06:25:34;2.25;;;1.00;;
7969;SDS011;4030;52.362;9.206;2022-07-29T06:28:01;1.60;;;0.95;;
7969;SDS011;4030;52.362;9.206;2022-07-29T06:30:27;1.25;;;1.00;;
7969;SDS011;4030;52.362;9.206;2022-07-29T06:32:53;1.48;;;1.00;;
7969;SDS011;4030;52.362;9.206;2022-07-29T06:35:19;2.08;;;1.10;;
7969;SDS011;4030;52.362;9.206;2022-07-29T06:37:46;1.50;;;0.98;;
7969;SDS011;4030;52.362;9.206;2022-07-29T06:40:11;2.17;;;1.10;;
7969;SDS011;4030;52.362;9.206;2022-07-29T06:42:55;2.08;;;1.10;;
7969;SDS011;4030;52.362;9.206;2022-07-29T06:45:21;1.67;;;0.90;;
7969;SDS011;4030;52.362;9.206;2022-07-29T06:47:47;1.40;;;1.00;;
7969;SDS011;4030;52.362;9.206;2022-07-29T06:50:14;3.83;;;1.35;;
7969;SDS011;4030;52.362;9.206;2022-07-29T06:52:40;2.60;;;1.00;;
7969;SDS011;4030;52.362;9.206;2022-07-29T06:55:06;3.35;;;1.20;;
7969;SDS011;4030;52.362;9.206;2022-07-29T06:57:32;2.30;;;1.08;;
7969;SDS011;4030;52.362;9.206;2022-07-29T06:59:59;1.25;;;1.00;;
7969;SDS011;4030;52.362;9.206;2022-07-29T07:02:25;1.50;;;1.10;;
7969;SDS011;4030;52.362;9.206;2022-07-29T07:04:50;1.85;;;0.90;;
7969;SDS011;4030;52.362;9.206;2022-07-29T07:07:16;0.88;;;0.70;;
7969;SDS011;4030;52.362;9.206;2022-07-29T07:09:42;1.58;;;0.95;;
7969;SDS011;4030;52.362;9.206;2022-07-29T07:12:08;1.55;;;0.90;;
7969;SDS011;4030;52.362;9.206;2022-07-29T07:14:34;1.40;;;0.95;;
7969;SDS011;4030;52.362;9.206;2022-07-29T07:17:00;2.13;;;1.10;;
7969;SDS011;4030;52.362;9.206;2022-07-29T07:19:28;2.58;;;0.95;;
7969;SDS011;4030;52.362;9.206;2022-07-29T07:21:54;2.40;;;1.27;;
7969;SDS011;4030;52.362;9.206;2022-07-29T07:24:20;2.30;;;1.05;;
7969;SDS011;4030;52.362;9.206;2022-07-29T07:26:45;4.05;;;1.05;;
7969;SDS011;4030;52.362;9.206;2022-07-29T07:29:11;1.50;;;1.00;;
7969;SDS011;4030;52.362;9.206;2022-07-29T07:31:37;3.80;;;1.50;;
7969;SDS011;4030;52.362;9.206;2022-07-29T07:34:03;4.18;;;2.25;;
7969;SDS011;4030;52.362;9.206;2022-07-29T07:36:28;4.38;;;2.65;;
7969;SDS011;4030;52.362;9.206;2022-07-29T07:38:54;6.82;;;2.55;;
7969;SDS011;4030;52.362;9.206;2022-07-29T07:41:20;4.55;;;2.55;;
7969;SDS011;4030;52.362;9.206;2022-07-29T07:43:45;2.85;;;2.20;;
7969;SDS011;4030;52.362;9.206;2022-07-29T07:46:11;2.58;;;1.80;;
7969;SDS011;4030;52.362;9.206;2022-07-29T07:48:37;3.17;;;1.98;;
7969;SDS011;4030;52.362;9.206;2022-07-29T07:51:02;2.95;;;2.10;;
7969;SDS011;4030;52.362;9.206;2022-07-29T07:53:28;3.53;;;1.95;;
7969;SDS011;4030;52.362;9.206;2022-07-29T07:55:55;3.20;;;2.00;;
7969;SDS011;4030;52.362;9.206;2022-07-29T07:58:21;2.38;;;1.85;;
7969;SDS011;4030;52.362;9.206;2022-07-29T08:00:47;2.88;;;1.65;;
7969;SDS011;4030;52.362;9.206;2022-07-29T08:03:13;3.88;;;1.83;;
7969;SDS011;4030;52.362;9.206;2022-07-29T08:05:39;5.13;;;1.80;;
7969;SDS011;4030;52.362;9.206;2022-07-29T08:08:05;4.45;;;2.00;;
7969;SDS011;4030;52.362;9.206;2022-07-29T08:10:31;4.05;;;1.75;;
7969;SDS011;4030;52.362;9.206;2022-07-29T08:13:16;3.55;;;1.77;;
7969;SDS011;4030;52.362;9.206;2022-07-29T08:15:42;6.10;;;1.83;;
7969;SDS011;4030;52.362;9.206;2022-07-29T08:18:08;3.70;;;1.48;;
7969;SDS011;4030;52.362;9.206;2022-07-29T08:20:33;3.03;;;1.65;;
7969;SDS011;4030;52.362;9.206;2022-07-29T08:23:00;3.65;;;1.80;;
7969;SDS011;4030;52.362;9.206;2022-07-29T08:25:31;4.72;;;1.95;;
7969;SDS011;4030;52.362;9.206;2022-07-29T08:27:57;4.20;;;1.85;;
7969;SDS011;4030;52.362;9.206;2022-07-29T08:30:23;3.25;;;1.60;;
7969;SDS011;4030;52.362;9.206;2022-07-29T08:32:49;1.83;;;1.33;;
7969;SDS011;4030;52.362;9.206;2022-07-29T08:35:17;4.80;;;1.73;;
7969;SDS011;4030;52.362;9.206;2022-07-29T08:37:43;3.85;;;1.60;;
7969;SDS011;4030;52.362;9.206;2022-07-29T08:40:09;3.75;;;1.55;;
7969;SDS011;4030;52.362;9.206;2022-07-29T08:42:35;2.88;;;1.67;;
7969;SDS011;4030;52.362;9.206;2022-07-29T08:45:02;4.10;;;1.58;;
7969;SDS011;4030;52.362;9.206;2022-07-29T08:47:28;4.55;;;1.40;;
7969;SDS011;4030;52.362;9.206;2022-07-29T08:49:54;5.03;;;1.70;;
7969;SDS011;4030;52.362;9.206;2022-07-29T08:52:20;4.57;;;1.50;;
7969;SDS011;4030;52.362;9.206;2022-07-29T08:54:49;6.20;;;1.60;;
7969;SDS011;4030;52.362;9.206;2022-07-29T08:57:15;8.02;;;1.95;;
7969;SDS011;4030;52.362;9.206;2022-07-29T08:59:42;5.68;;;1.88;;
7969;SDS011;4030;52.362;9.206;2022-07-29T09:02:11;11.60;;;1.80;;
7969;SDS011;4030;52.362;9.206;2022-07-29T09:04:43;4.65;;;1.85;;
7969;SDS011;4030;52.362;9.206;2022-07-29T09:07:10;4.07;;;1.45;;
7969;SDS011;4030;52.362;9.206;2022-07-29T09:09:39;8.57;;;1.98;;
7969;SDS011;4030;52.362;9.206;2022-07-29T09:12:05;4.15;;;1.80;;
7969;SDS011;4030;52.362;9.206;2022-07-29T09:14:33;5.13;;;1.70;;
7969;SDS011;4030;52.362;9.206;2022-07-29T09:16:59;5.70;;;1.83;;
7969;SDS011;4030;52.362;9.206;2022-07-29T09:21:51;4.25;;;1.40;;
7969;SDS011;4030;52.362;9.206;2022-07-29T09:24:24;5.40;;;1.58;;
7969;SDS011;4030;52.362;9.206;2022-07-29T09:26:59;3.10;;;1.30;;
7969;SDS011;4030;52.362;9.206;2022-07-29T09:29:25;3.78;;;1.60;;
7969;SDS011;4030;52.362;9.206;2022-07-29T09:31:52;2.60;;;1.50;;
7969;SDS011;4030;52.362;9.206;2022-07-29T09:34:26;2.10;;;1.30;;
7969;SDS011;4030;52.362;9.206;2022-07-29T09:36:56;4.72;;;1.63;;
7969;SDS011;4030;52.362;9.206;2022-07-29T09:41:56;5.60;;;1.40;;
7969;SDS011;4030;52.362;9.206;2022-07-29T09:44:22;3.47;;;1.42;;
7969;SDS011;4030;52.362;9.206;2022-07-29T09:47:07;5.32;;;1.50;;
7969;SDS011;4030;52.362;9.206;2022-07-29T09:49:33;2.30;;;1.42;;
7969;SDS011;4030;52.362;9.206;2022-07-29T09:52:04;4.13;;;1.55;;
7969;SDS011;4030;52.362;9.206;2022-07-29T09:54:34;3.03;;;1.33;;
7969;SDS011;4030;52.362;9.206;2022-07-29T09:57:04;3.63;;;1.48;;
7969;SDS011;4030;52.362;9.206;2022-07-29T09:59:31;3.67;;;1.40;;
7969;SDS011;4030;52.362;9.206;2022-07-29T10:01:58;2.35;;;1.40;;
7969;SDS011;4030;52.362;9.206;2022-07-29T10:04:23;3.83;;;1.52;;
7969;SDS011;4030;52.362;9.206;2022-07-29T10:07:01;5.28;;;1.70;;
7969;SDS011;4030;52.362;9.206;2022-07-29T10:09:29;2.53;;;1.40;;
7969;SDS011;4030;52.362;9.206;2022-07-29T10:12:02;3.30;;;1.40;;
7969;SDS011;4030;52.362;9.206;2022-07-29T10:14:39;2.63;;;1.40;;
7969;SDS011;4030;52.362;9.206;2022-07-29T10:17:06;2.95;;;1.45;;
7969;SDS011;4030;52.362;9.206;2022-07-29T10:19:32;4.22;;;1.45;;
7969;SDS011;4030;52.362;9.206;2022-07-29T10:21:59;4.28;;;1.70;;
7969;SDS011;4030;52.362;9.206;2022-07-29T10:24:27;3.65;;;1.33;;
7969;SDS011;4030;52.362;9.206;2022-07-29T10:26:58;4.55;;;1.50;;
7969;SDS011;4030;52.362;9.206;2022-07-29T10:29:27;5.03;;;1.30;;
7969;SDS011;4030;52.362;9.206;2022-07-29T10:41:17;4.20;;;1.50;;
7969;SDS011;4030;52.362;9.206;2022-07-29T10:43:54;3.58;;;1.60;;
7969;SDS011;4030;52.362;9.206;2022-07-29T10:46:28;2.78;;;1.50;;
7969;SDS011;4030;52.362;9.206;2022-07-29T10:49:12;4.32;;;1.45;;
7969;SDS011;4030;52.362;9.206;2022-07-29T10:51:54;3.03;;;1.65;;
7969;SDS011;4030;52.362;9.206;2022-07-29T10:59:49;6.32;;;1.75;;
7969;SDS011;4030;52.362;9.206;2022-07-29T11:05:08;5.65;;;1.70;;
7969;SDS011;4030;52.362;9.206;2022-07-29T11:07:39;3.50;;;1.40;;
7969;SDS011;4030;52.362;9.206;2022-07-29T11:10:25;3.28;;;1.50;;
7969;SDS011;4030;52.362;9.206;2022-07-29T11:12:51;3.58;;;1.70;;
7969;SDS011;4030;52.362;9.206;2022-07-29T11:15:18;4.47;;;1.40;;
7969;SDS011;4030;52.362;9.206;2022-07-29T11:20:42;2.45;;;1.40;;
7969;SDS011;4030;52.362;9.206;2022-07-29T11:39:34;3.42;;;1.73;;
7969;SDS011;4030;52.362;9.206;2022-07-29T11:47:20;2.95;;;1.60;;
7969;SDS011;4030;52.362;9.206;2022-07-29T11:49:46;6.13;;;2.00;;
7969;SDS011;4030;52.362;9.206;2022-07-29T11:52:13;3.30;;;1.75;;
7969;SDS011;4030;52.362;9.206;2022-07-29T11:54:38;4.93;;;1.85;;
7969;SDS011;4030;52.362;9.206;2022-07-29T11:57:07;4.15;;;1.58;;
7969;SDS011;4030;52.362;9.206;2022-07-29T11:59:40;3.65;;;1.75;;
7969;SDS011;4030;52.362;9.206;2022-07-29T12:02:06;3.60;;;1.65;;
7969;SDS011;4030;52.362;9.206;2022-07-29T12:04:33;5.95;;;1.75;;
7969;SDS011;4030;52.362;9.206;2022-07-29T12:06:59;4.43;;;1.67;;
7969;SDS011;4030;52.362;9.206;2022-07-29T12:09:25;4.28;;;1.90;;
7969;SDS011;4030;52.362;9.206;2022-07-29T12:11:57;3.55;;;2.42;;
7969;SDS011;4030;52.362;9.206;2022-07-29T12:14:29;5.32;;;4.57;;
7969;SDS011;4030;52.362;9.206;2022-07-29T12:16:57;11.45;;;8.02;;
7969;SDS011;4030;52.362;9.206;2022-07-29T12:19:23;7.93;;;6.97;;
7969;SDS011;4030;52.362;9.206;2022-07-29T12:21:50;17.23;;;13.73;;
7969;SDS011;4030;52.362;9.206;2022-07-29T12:24:17;25.15;;;22.60;;
7969;SDS011;4030;52.362;9.206;2022-07-29T12:26:50;19.50;;;17.50;;
7969;SDS011;4030;52.362;9.206;2022-07-29T12:29:17;10.38;;;9.00;;
7969;SDS011;4030;52.362;9.206;2022-07-29T12:31:43;7.03;;;5.70;;
7969;SDS011;4030;52.362;9.206;2022-07-29T12:34:13;5.55;;;3.90;;
7969;SDS011;4030;52.362;9.206;2022-07-29T12:36:40;4.55;;;2.40;;
7969;SDS011;4030;52.362;9.206;2022-07-29T12:39:08;4.22;;;2.63;;
7969;SDS011;4030;52.362;9.206;2022-07-29T12:41:34;2.67;;;2.10;;
7969;SDS011;4030;52.362;9.206;2022-07-29T12:44:00;4.15;;;1.85;;
7969;SDS011;4030;52.362;9.206;2022-07-29T12:46:25;3.90;;;2.10;;
7969;SDS011;4030;52.362;9.206;2022-07-29T12:48:52;2.90;;;1.95;;
7969;SDS011;4030;52.362;9.206;2022-07-29T12:51:29;3.25;;;1.52;;
7969;SDS011;4030;52.362;9.206;2022-07-29T12:54:12;3.38;;;1.70;;
7969;SDS011;4030;52.362;9.206;2022-07-29T12:56:39;2.25;;;1.75;;
7969;SDS011;4030;52.362;9.206;2022-07-29T13:01:38;3.47;;;1.60;;
7969;SDS011;4030;52.362;9.206;2022-07-29T13:04:04;4.13;;;1.90;;
7969;SDS011;4030;52.362;9.206;2022-07-29T13:06:39;4.70;;;2.10;;
7969;SDS011;4030;52.362;9.206;2022-07-29T13:09:13;2.95;;;1.92;;
7969;SDS011;4030;52.362;9.206;2022-07-29T13:17:04;5.10;;;1.90;;
7969;SDS011;4030;52.362;9.206;2022-07-29T13:22:14;5.15;;;1.90;;
7969;SDS011;4030;52.362;9.206;2022-07-29T13:24:47;3.72;;;1.70;;
7969;SDS011;4030;52.362;9.206;2022-07-29T13:27:22;3.08;;;1.52;;
7969;SDS011;4030;52.362;9.206;2022-07-29T13:29:49;4.15;;;1.60;;
7969;SDS011;4030;52.362;9.206;2022-07-29T13:32:17;2.67;;;1.70;;
7969;SDS011;4030;52.362;9.206;2022-07-29T13:34:43;6.68;;;1.98;;
7969;SDS011;4030;52.362;9.206;2022-07-29T13:37:08;3.85;;;1.80;;
7969;SDS011;4030;52.362;9.206;2022-07-29T13:39:34;2.92;;;1.80;;
7969;SDS011;4030;52.362;9.206;2022-07-29T13:42:00;2.72;;;1.50;;
7969;SDS011;4030;52.362;9.206;2022-07-29T13:44:26;3.63;;;1.88;;
7969;SDS011;4030;52.362;9.206;2022-07-29T13:46:52;5.53;;;1.88;;
7969;SDS011;4030;52.362;9.206;2022-07-29T13:49:17;3.97;;;1.77;;
7969;SDS011;4030;52.362;9.206;2022-07-29T13:51:43;3.53;;;1.73;;
7969;SDS011;4030;52.362;9.206;2022-07-29T13:54:08;3.22;;;1.63;;
7969;SDS011;4030;52.362;9.206;2022-07-29T13:56:34;4.93;;;1.80;;
7969;SDS011;4030;52.362;9.206;2022-07-29T13:59:00;2.47;;;1.77;;
7969;SDS011;4030;52.362;9.206;2022-07-29T14:01:26;4.07;;;2.00;;
7969;SDS011;4030;52.362;9.206;2022-07-29T14:03:52;3.55;;;1.60;;
7969;SDS011;4030;52.362;9.206;2022-07-29T14:06:18;2.67;;;1.50;;
7969;SDS011;4030;52.362;9.206;2022-07-29T14:08:44;5.82;;;1.98;;
7969;SDS011;4030;52.362;9.206;2022-07-29T14:11:10;7.72;;;2.00;;
7969;SDS011;4030;52.362;9.206;2022-07-29T14:13:35;5.28;;;1.80;;
7969;SDS011;4030;52.362;9.206;2022-07-29T14:16:01;3.88;;;1.90;;
7969;SDS011;4030;52.362;9.206;2022-07-29T14:18:26;4.80;;;2.08;;
7969;SDS011;4030;52.362;9.206;2022-07-29T14:20:52;2.80;;;1.85;;
7969;SDS011;4030;52.362;9.206;2022-07-29T14:23:18;3.33;;;1.77;;
7969;SDS011;4030;52.362;9.206;2022-07-29T14:25:43;6.63;;;1.95;;
7969;SDS011;4030;52.362;9.206;2022-07-29T14:28:09;3.50;;;1.80;;
7969;SDS011;4030;52.362;9.206;2022-07-29T14:30:35;3.65;;;1.90;;
7969;SDS011;4030;52.362;9.206;2022-07-29T14:33:01;9.15;;;2.10;;
7969;SDS011;4030;52.362;9.206;2022-07-29T14:35:26;6.50;;;2.70;;
7969;SDS011;4030;52.362;9.206;2022-07-29T14:37:52;7.57;;;3.03;;
7969;SDS011;4030;52.362;9.206;2022-07-29T14:40:18;8.43;;;3.60;;
7969;SDS011;4030;52.362;9.206;2022-07-29T14:42:44;7.97;;;3.30;;
7969;SDS011;4030;52.362;9.206;2022-07-29T14:45:10;6.32;;;3.15;;
7969;SDS011;4030;52.362;9.206;2022-07-29T14:47:36;5.22;;;2.70;;
7969;SDS011;4030;52.362;9.206;2022-07-29T14:50:04;5.90;;;2.58;;
7969;SDS011;4030;52.362;9.206;2022-07-29T14:52:30;5.93;;;2.30;;
7969;SDS011;4030;52.362;9.206;2022-07-29T14:54:56;5.03;;;2.70;;
7969;SDS011;4030;52.362;9.206;2022-07-29T14:57:22;4.43;;;2.60;;
7969;SDS011;4030;52.362;9.206;2022-07-29T14:59:48;4.82;;;2.53;;
7969;SDS011;4030;52.362;9.206;2022-07-29T15:02:14;4.45;;;2.75;;
7969;SDS011;4030;52.362;9.206;2022-07-29T15:04:40;5.20;;;3.10;;
7969;SDS011;4030;52.362;9.206;2022-07-29T15:07:06;5.65;;;2.70;;
7969;SDS011;4030;52.362;9.206;2022-07-29T15:09:33;5.95;;;2.20;;
7969;SDS011;4030;52.362;9.206;2022-07-29T15:11:59;3.92;;;2.00;;
7969;SDS011;4030;52.362;9.206;2022-07-29T15:14:25;3.65;;;2.00;;
7969;SDS011;4030;52.362;9.206;2022-07-29T15:16:51;6.28;;;1.92;;
7969;SDS011;4030;52.362;9.206;2022-07-29T15:19:16;2.55;;;1.70;;
7969;SDS011;4030;52.362;9.206;2022-07-29T15:21:42;4.10;;;1.80;;
7969;SDS011;4030;52.362;9.206;2022-07-29T15:24:08;3.60;;;2.03;;
7969;SDS011;4030;52.362;9.206;2022-07-29T15:26:34;3.78;;;2.00;;
7969;SDS011;4030;52.362;9.206;2022-07-29T15:28:59;3.97;;;2.00;;
7969;SDS011;4030;52.362;9.206;2022-07-29T15:31:25;3.80;;;1.92;;
7969;SDS011;4030;52.362;9.206;2022-07-29T15:33:51;3.17;;;1.98;;
7969;SDS011;4030;52.362;9.206;2022-07-29T15:36:17;4.13;;;2.08;;
7969;SDS011;4030;52.362;9.206;2022-07-29T15:38:42;4.10;;;2.00;;
7969;SDS011;4030;52.362;9.206;2022-07-29T15:41:12;4.50;;;1.92;;
7969;SDS011;4030;52.362;9.206;2022-07-29T15:43:41;3.95;;;2.10;;
7969;SDS011;4030;52.362;9.206;2022-07-29T15:46:09;3.00;;;1.90;;
7969;SDS011;4030;52.362;9.206;2022-07-29T15:49:00;3.42;;;1.90;;
7969;SDS011;4030;52.362;9.206;2022-07-29T15:51:27;3.78;;;2.00;;
7969;SDS011;4030;52.362;9.206;2022-07-29T15:53:52;4.20;;;2.15;;
7969;SDS011;4030;52.362;9.206;2022-07-29T15:56:18;4.60;;;2.17;;
7969;SDS011;4030;52.362;9.206;2022-07-29T15:58:44;5.57;;;2.13;;
7969;SDS011;4030;52.362;9.206;2022-07-29T16:01:10;3.72;;;1.92;;
7969;SDS011;4030;52.362;9.206;2022-07-29T16:03:36;3.17;;;1.83;;
7969;SDS011;4030;52.362;9.206;2022-07-29T16:06:02;3.77;;;2.37;;
7969;SDS011;4030;52.362;9.206;2022-07-29T16:08:27;5.07;;;2.10;;
7969;SDS011;4030;52.362;9.206;2022-07-29T16:10:53;3.60;;;2.03;;
7969;SDS011;4030;52.362;9.206;2022-07-29T16:13:19;4.25;;;2.13;;
7969;SDS011;4030;52.362;9.206;2022-07-29T16:15:44;4.57;;;2.10;;
7969;SDS011;4030;52.362;9.206;2022-07-29T16:18:10;2.92;;;1.85;;
7969;SDS011;4030;52.362;9.206;2022-07-29T16:20:38;3.45;;;1.77;;
7969;SDS011;4030;52.362;9.206;2022-07-29T16:23:04;3.90;;;1.70;;
7969;SDS011;4030;52.362;9.206;2022-07-29T16:25:29;3.28;;;1.80;;
7969;SDS011;4030;52.362;9.206;2022-07-29T16:27:55;2.97;;;1.70;;
7969;SDS011;4030;52.362;9.206;2022-07-29T16:30:21;2.80;;;1.73;;
7969;SDS011;4030;52.362;9.206;2022-07-29T16:32:47;2.25;;;1.85;;
7969;SDS011;4030;52.362;9.206;2022-07-29T16:35:13;2.38;;;1.60;;